Jolly Acres, South Dakota
Current Conditions -  °F | °C
As of 4:52 AM on Wednesday 28 Jan 2015 (Local Time) from KRAP Reporting Station
Clear Clear  
Wind Chill: 35°   Ceiling: Unl
Heat Index: 35°   Visibility: 10mi
Dew Point: 25°   Wind: 3mph
Humidity: 67%   Direction: 300°WNW
Pressure: 29.78"   Gusts: NA
Location:  44.0731°N, 103.205°W
Report Text: KRAP 281152Z AUTO 30003KT 10SM CLR 02/M04 A2978 RMK AO2 SLP091 T00171039 10128 20017 53005
Loading
Personal Weather Stations






























Interactive Weather Map New forecast layout! Learn more

10-Day Weather Forecast

Advertisements
Track Severe Weather on mobile